sensor_id;sensor_type;location;lat;lon;timestamp;pressure;altitude;pressure_sealevel;temperature;humidity
31346;BME280;21711;49.708;18.568;2023-06-22T00:01:21;97653.31;;;21.51;100.00
31346;BME280;21711;49.708;18.568;2023-06-22T00:03:50;97650.84;;;21.46;100.00
31346;BME280;21711;49.708;18.568;2023-06-22T00:06:17;97648.34;;;21.28;100.00
31346;BME280;21711;49.708;18.568;2023-06-22T00:08:44;97636.56;;;21.33;100.00
31346;BME280;21711;49.708;18.568;2023-06-22T00:11:12;97633.78;;;21.42;100.00
31346;BME280;21711;49.708;18.568;2023-06-22T00:13:39;97633.25;;;21.49;100.00
31346;BME280;21711;49.708;18.568;2023-06-22T00:16:07;97638.06;;;21.55;100.00
31346;BME280;21711;49.708;18.568;2023-06-22T00:18:34;97629.19;;;21.42;100.00
31346;BME280;21711;49.708;18.568;2023-06-22T00:21:02;97628.19;;;21.35;100.00
31346;BME280;21711;49.708;18.568;2023-06-22T00:23:29;97626.28;;;21.35;100.00
31346;BME280;21711;49.708;18.568;2023-06-22T00:26:01;97628.63;;;21.49;100.00
31346;BME280;21711;49.708;18.568;2023-06-22T00:28:28;97627.72;;;21.45;100.00
31346;BME280;21711;49.708;18.568;2023-06-22T00:30:56;97633.19;;;21.24;100.00
31346;BME280;21711;49.708;18.568;2023-06-22T00:33:25;97639.69;;;21.23;100.00
31346;BME280;21711;49.708;18.568;2023-06-22T00:35:52;97641.72;;;21.38;100.00
31346;BME280;21711;49.708;18.568;2023-06-22T00:38:21;97639.03;;;21.38;100.00
31346;BME280;21711;49.708;18.568;2023-06-22T00:40:48;97651.41;;;21.64;100.00
31346;BME280;21711;49.708;18.568;2023-06-22T00:43:16;97650.38;;;21.44;100.00
31346;BME280;21711;49.708;18.568;2023-06-22T00:45:43;97642.31;;;21.32;100.00
31346;BME280;21711;49.708;18.568;2023-06-22T00:48:12;97646.91;;;21.44;100.00
31346;BME280;21711;49.708;18.568;2023-06-22T00:50:41;97647.09;;;21.38;100.00
31346;BME280;21711;49.708;18.568;2023-06-22T00:53:09;97642.38;;;21.23;100.00
31346;BME280;21711;49.708;18.568;2023-06-22T00:55:43;97638.56;;;21.24;100.00
31346;BME280;21711;49.708;18.568;2023-06-22T00:58:13;97645.00;;;21.57;100.00
31346;BME280;21711;49.708;18.568;2023-06-22T01:00:41;97635.50;;;21.72;100.00
31346;BME280;21711;49.708;18.568;2023-06-22T01:03:09;97633.59;;;21.85;100.00
31346;BME280;21711;49.708;18.568;2023-06-22T01:05:38;97625.19;;;21.74;100.00
31346;BME280;21711;49.708;18.568;2023-06-22T01:09:19;97619.25;;;21.80;100.00
31346;BME280;21711;49.708;18.568;2023-06-22T01:11:56;97611.94;;;21.56;100.00
31346;BME280;21711;49.708;18.568;2023-06-22T01:14:43;97602.41;;;21.71;100.00
31346;BME280;21711;49.708;18.568;2023-06-22T01:17:12;97603.75;;;21.65;100.00
31346;BME280;21711;49.708;18.568;2023-06-22T01:19:55;97597.47;;;21.61;100.00
31346;BME280;21711;49.708;18.568;2023-06-22T01:22:31;97601.84;;;21.65;100.00
31346;BME280;21711;49.708;18.568;2023-06-22T01:25:10;97603.44;;;21.54;100.00
31346;BME280;21711;49.708;18.568;2023-06-22T01:27:58;97601.28;;;21.35;100.00
31346;BME280;21711;49.708;18.568;2023-06-22T01:30:30;97597.16;;;21.25;100.00
31346;BME280;21711;49.708;18.568;2023-06-22T01:33:04;97597.34;;;21.32;100.00
31346;BME280;21711;49.708;18.568;2023-06-22T01:35:32;97604.63;;;21.19;100.00
31346;BME280;21711;49.708;18.568;2023-06-22T01:38:01;97606.84;;;21.17;100.00
31346;BME280;21711;49.708;18.568;2023-06-22T01:40:29;97612.69;;;21.07;100.00
31346;BME280;21711;49.708;18.568;2023-06-22T01:42:57;97611.81;;;20.81;100.00
31346;BME280;21711;49.708;18.568;2023-06-22T01:45:27;97614.84;;;20.80;100.00
31346;BME280;21711;49.708;18.568;2023-06-22T01:47:56;97611.91;;;20.72;100.00
31346;BME280;21711;49.708;18.568;2023-06-22T01:50:24;97612.00;;;20.76;100.00
31346;BME280;21711;49.708;18.568;2023-06-22T01:52:52;97616.63;;;20.75;100.00
31346;BME280;21711;49.708;18.568;2023-06-22T01:55:19;97615.44;;;20.64;100.00
31346;BME280;21711;49.708;18.568;2023-06-22T01:57:49;97615.81;;;20.75;100.00
31346;BME280;21711;49.708;18.568;2023-06-22T02:00:21;97616.63;;;20.75;100.00
31346;BME280;21711;49.708;18.568;2023-06-22T02:03:20;97616.97;;;20.53;100.00
31346;BME280;21711;49.708;18.568;2023-06-22T02:05:58;97619.88;;;20.47;100.00
31346;BME280;21711;49.708;18.568;2023-06-22T02:08:43;97624.66;;;20.42;100.00
31346;BME280;21711;49.708;18.568;2023-06-22T02:11:15;97622.44;;;20.44;100.00
31346;BME280;21711;49.708;18.568;2023-06-22T02:13:44;97624.31;;;20.43;100.00
31346;BME280;21711;49.708;18.568;2023-06-22T02:16:13;97622.44;;;20.44;100.00
31346;BME280;21711;49.708;18.568;2023-06-22T02:18:49;97637.47;;;20.36;100.00
31346;BME280;21711;49.708;18.568;2023-06-22T02:21:19;97639.00;;;20.46;100.00
31346;BME280;21711;49.708;18.568;2023-06-22T02:23:47;97640.25;;;20.27;100.00
31346;BME280;21711;49.708;18.568;2023-06-22T02:26:17;97632.72;;;20.20;100.00
31346;BME280;21711;49.708;18.568;2023-06-22T02:28:44;97636.44;;;20.28;100.00
31346;BME280;21711;49.708;18.568;2023-06-22T02:31:13;97645.09;;;20.34;100.00
31346;BME280;21711;49.708;18.568;2023-06-22T02:33:40;97644.38;;;20.24;100.00
31346;BME280;21711;49.708;18.568;2023-06-22T02:36:08;97644.44;;;20.37;100.00
31346;BME280;21711;49.708;18.568;2023-06-22T02:38:36;97648.63;;;20.47;100.00
31346;BME280;21711;49.708;18.568;2023-06-22T02:41:03;97648.28;;;20.48;100.00
31346;BME280;21711;49.708;18.568;2023-06-22T02:43:31;97651.78;;;20.49;100.00
31346;BME280;21711;49.708;18.568;2023-06-22T02:45:58;97656.03;;;20.50;100.00
31346;BME280;21711;49.708;18.568;2023-06-22T02:48:26;97660.19;;;20.60;100.00
31346;BME280;21711;49.708;18.568;2023-06-22T02:50:53;97670.69;;;20.53;100.00
31346;BME280;21711;49.708;18.568;2023-06-22T02:53:21;97666.69;;;20.59;100.00
31346;BME280;21711;49.708;18.568;2023-06-22T02:55:48;97665.19;;;20.70;100.00
31346;BME280;21711;49.708;18.568;2023-06-22T02:58:15;97665.19;;;20.70;100.00
31346;BME280;21711;49.708;18.568;2023-06-22T03:00:43;97670.19;;;20.59;100.00
31346;BME280;21711;49.708;18.568;2023-06-22T03:03:11;97667.41;;;20.47;100.00
31346;BME280;21711;49.708;18.568;2023-06-22T03:05:38;97671.56;;;20.44;100.00
31346;BME280;21711;49.708;18.568;2023-06-22T03:08:08;97672.66;;;20.43;100.00
31346;BME280;21711;49.708;18.568;2023-06-22T03:10:35;97674.09;;;20.41;100.00
31346;BME280;21711;49.708;18.568;2023-06-22T03:13:03;97684.78;;;20.49;100.00
31346;BME280;21711;49.708;18.568;2023-06-22T03:15:30;97681.84;;;20.42;100.00
31346;BME280;21711;49.708;18.568;2023-06-22T03:17:58;97677.75;;;20.57;100.00
31346;BME280;21711;49.708;18.568;2023-06-22T03:20:26;97673.19;;;20.58;100.00
31346;BME280;21711;49.708;18.568;2023-06-22T03:22:54;97683.53;;;20.68;100.00
31346;BME280;21711;49.708;18.568;2023-06-22T03:25:23;97687.00;;;20.69;100.00
31346;BME280;21711;49.708;18.568;2023-06-22T03:27:50;97694.78;;;20.83;100.00
31346;BME280;21711;49.708;18.568;2023-06-22T03:30:17;97696.63;;;20.91;100.00
31346;BME280;21711;49.708;18.568;2023-06-22T03:32:45;97691.16;;;20.87;100.00
31346;BME280;21711;49.708;18.568;2023-06-22T03:35:14;97693.47;;;21.10;100.00
31346;BME280;21711;49.708;18.568;2023-06-22T03:37:41;97686.06;;;21.07;100.00
31346;BME280;21711;49.708;18.568;2023-06-22T03:40:09;97690.41;;;20.99;100.00
31346;BME280;21711;49.708;18.568;2023-06-22T03:42:37;97686.91;;;20.86;100.00
31346;BME280;21711;49.708;18.568;2023-06-22T03:45:05;97683.00;;;20.96;100.00
31346;BME280;21711;49.708;18.568;2023-06-22T03:47:32;97686.84;;;21.08;100.00
31346;BME280;21711;49.708;18.568;2023-06-22T03:50:01;97691.38;;;21.28;100.00
31346;BME280;21711;49.708;18.568;2023-06-22T03:52:30;97677.94;;;21.28;100.00
31346;BME280;21711;49.708;18.568;2023-06-22T03:54:58;97671.19;;;21.35;100.00
31346;BME280;21711;49.708;18.568;2023-06-22T03:57:25;97675.59;;;21.64;100.00
31346;BME280;21711;49.708;18.568;2023-06-22T03:59:56;97692.78;;;21.72;100.00
31346;BME280;21711;49.708;18.568;2023-06-22T04:02:25;97684.25;;;21.83;100.00
31346;BME280;21711;49.708;18.568;2023-06-22T04:04:53;97690.63;;;22.28;100.00
31346;BME280;21711;49.708;18.568;2023-06-22T04:07:20;97700.25;;;22.82;100.00
31346;BME280;21711;49.708;18.568;2023-06-22T04:09:47;97697.63;;;23.15;100.00
31346;BME280;21711;49.708;18.568;2023-06-22T04:12:15;97703.69;;;23.40;100.00
31346;BME280;21711;49.708;18.568;2023-06-22T04:14:42;97701.34;;;23.71;100.00
31346;BME280;21711;49.708;18.568;2023-06-22T04:17:10;97714.56;;;23.92;100.00
31346;BME280;21711;49.708;18.568;2023-06-22T04:19:37;97713.91;;;24.31;100.00
31346;BME280;21711;49.708;18.568;2023-06-22T04:22:04;97713.66;;;24.56;100.00
31346;BME280;21711;49.708;18.568;2023-06-22T04:24:34;97714.22;;;24.65;100.00
31346;BME280;21711;49.708;18.568;2023-06-22T04:27:01;97721.06;;;24.79;100.00
31346;BME280;21711;49.708;18.568;2023-06-22T04:29:30;97724.66;;;25.26;100.00
31346;BME280;21711;49.708;18.568;2023-06-22T04:31:57;97723.94;;;25.53;100.00
31346;BME280;21711;49.708;18.568;2023-06-22T04:34:25;97718.34;;;25.42;100.00
31346;BME280;21711;49.708;18.568;2023-06-22T04:36:56;97721.19;;;25.72;100.00
31346;BME280;21711;49.708;18.568;2023-06-22T04:39:24;97721.28;;;26.03;97.35
31346;BME280;21711;49.708;18.568;2023-06-22T04:41:51;97728.75;;;26.13;99.13
31346;BME280;21711;49.708;18.568;2023-06-22T04:44:19;97725.53;;;26.04;98.20
31346;BME280;21711;49.708;18.568;2023-06-22T04:46:56;97729.97;;;26.43;96.14
31346;BME280;21711;49.708;18.568;2023-06-22T04:49:36;97735.09;;;26.83;87.41
31346;BME280;21711;49.708;18.568;2023-06-22T04:52:09;97728.53;;;26.84;90.71
31346;BME280;21711;49.708;18.568;2023-06-22T04:54:38;97726.97;;;27.17;87.52
31346;BME280;21711;49.708;18.568;2023-06-22T04:57:07;97740.47;;;27.51;83.40
31346;BME280;21711;49.708;18.568;2023-06-22T04:59:38;97738.75;;;27.32;85.35
31346;BME280;21711;49.708;18.568;2023-06-22T05:02:09;97742.25;;;27.74;84.87
31346;BME280;21711;49.708;18.568;2023-06-22T05:04:37;97745.38;;;27.76;84.63
31346;BME280;21711;49.708;18.568;2023-06-22T05:07:07;97747.81;;;27.92;85.23
31346;BME280;21711;49.708;18.568;2023-06-22T05:09:34;97753.69;;;28.65;82.77
31346;BME280;21711;49.708;18.568;2023-06-22T05:12:03;97749.63;;;29.22;78.84
31346;BME280;21711;49.708;18.568;2023-06-22T05:14:34;97751.63;;;29.58;75.30
31346;BME280;21711;49.708;18.568;2023-06-22T05:17:02;97755.53;;;30.08;73.34
31346;BME280;21711;49.708;18.568;2023-06-22T05:19:31;97746.97;;;30.21;72.55
31346;BME280;21711;49.708;18.568;2023-06-22T05:22:01;97751.25;;;29.92;67.98
31346;BME280;21711;49.708;18.568;2023-06-22T05:24:29;97748.13;;;30.01;72.42
31346;BME280;21711;49.708;18.568;2023-06-22T05:26:56;97755.44;;;30.59;67.96
31346;BME280;21711;49.708;18.568;2023-06-22T05:29:23;97756.84;;;30.93;69.51
31346;BME280;21711;49.708;18.568;2023-06-22T05:31:51;97754.72;;;31.33;66.45
31346;BME280;21711;49.708;18.568;2023-06-22T05:34:18;97761.06;;;31.72;64.01
31346;BME280;21711;49.708;18.568;2023-06-22T05:36:46;97762.00;;;32.04;63.35
31346;BME280;21711;49.708;18.568;2023-06-22T05:39:14;97760.22;;;31.22;65.37
31346;BME280;21711;49.708;18.568;2023-06-22T05:41:42;97754.84;;;31.68;64.35
31346;BME280;21711;49.708;18.568;2023-06-22T05:44:10;97750.75;;;32.33;60.89
31346;BME280;21711;49.708;18.568;2023-06-22T05:46:42;97749.53;;;31.99;60.25
31346;BME280;21711;49.708;18.568;2023-06-22T05:49:14;97758.38;;;32.53;61.35
31346;BME280;21711;49.708;18.568;2023-06-22T05:51:43;97756.03;;;33.17;59.83
31346;BME280;21711;49.708;18.568;2023-06-22T05:54:10;97752.44;;;33.21;56.58
31346;BME280;21711;49.708;18.568;2023-06-22T05:56:40;97752.31;;;33.00;59.19
31346;BME280;21711;49.708;18.568;2023-06-22T05:59:07;97752.97;;;33.39;58.79
31346;BME280;21711;49.708;18.568;2023-06-22T06:01:35;97751.88;;;33.33;57.93
31346;BME280;21711;49.708;18.568;2023-06-22T06:04:04;97747.09;;;33.13;57.49
31346;BME280;21711;49.708;18.568;2023-06-22T06:06:31;97752.88;;;33.94;55.31
31346;BME280;21711;49.708;18.568;2023-06-22T06:08:59;97759.38;;;33.80;56.31
31346;BME280;21711;49.708;18.568;2023-06-22T06:11:27;97761.22;;;34.11;53.99
31346;BME280;21711;49.708;18.568;2023-06-22T06:13:54;97761.63;;;34.09;52.68
31346;BME280;21711;49.708;18.568;2023-06-22T06:16:22;97760.28;;;34.62;49.98
31346;BME280;21711;49.708;18.568;2023-06-22T06:18:50;97762.56;;;34.23;52.89
31346;BME280;21711;49.708;18.568;2023-06-22T06:21:17;97768.53;;;34.82;53.18
31346;BME280;21711;49.708;18.568;2023-06-22T06:23:45;97767.00;;;35.51;51.25
31346;BME280;21711;49.708;18.568;2023-06-22T06:26:12;97776.00;;;36.02;48.31
31346;BME280;21711;49.708;18.568;2023-06-22T06:28:39;97769.75;;;35.35;49.69
31346;BME280;21711;49.708;18.568;2023-06-22T06:31:08;97765.31;;;34.23;54.46
31346;BME280;21711;49.708;18.568;2023-06-22T06:33:36;97768.09;;;33.48;57.19
31346;BME280;21711;49.708;18.568;2023-06-22T06:36:04;97778.19;;;31.80;63.64
31346;BME280;21711;49.708;18.568;2023-06-22T06:38:31;97772.00;;;31.69;63.77
31346;BME280;21711;49.708;18.568;2023-06-22T06:41:00;97774.53;;;31.98;63.37
31346;BME280;21711;49.708;18.568;2023-06-22T06:43:27;97776.03;;;33.14;58.79
31346;BME280;21711;49.708;18.568;2023-06-22T06:45:55;97779.19;;;34.36;53.84
31346;BME280;21711;49.708;18.568;2023-06-22T06:48:22;97785.22;;;34.71;52.66
31346;BME280;21711;49.708;18.568;2023-06-22T06:50:49;97784.78;;;35.97;48.81
31346;BME280;21711;49.708;18.568;2023-06-22T06:53:17;97778.94;;;36.70;48.48
31346;BME280;21711;49.708;18.568;2023-06-22T06:55:44;97782.66;;;36.64;45.19
31346;BME280;21711;49.708;18.568;2023-06-22T06:58:13;97786.34;;;37.00;46.29
31346;BME280;21711;49.708;18.568;2023-06-22T07:00:40;97780.19;;;37.60;44.39
31346;BME280;21711;49.708;18.568;2023-06-22T07:03:08;97783.00;;;37.96;43.73
31346;BME280;21711;49.708;18.568;2023-06-22T07:05:36;97771.72;;;37.16;44.42
31346;BME280;21711;49.708;18.568;2023-06-22T07:08:03;97763.13;;;35.32;47.26
31346;BME280;21711;49.708;18.568;2023-06-22T07:10:31;97770.81;;;34.23;51.61
31346;BME280;21711;49.708;18.568;2023-06-22T07:12:58;97770.16;;;34.15;52.70
31346;BME280;21711;49.708;18.568;2023-06-22T07:15:26;97766.13;;;35.21;51.39
31346;BME280;21711;49.708;18.568;2023-06-22T07:17:53;97772.00;;;34.22;55.46
31346;BME280;21711;49.708;18.568;2023-06-22T07:20:20;97765.38;;;33.20;59.01
31346;BME280;21711;49.708;18.568;2023-06-22T07:22:48;97769.25;;;33.23;58.25
31346;BME280;21711;49.708;18.568;2023-06-22T07:25:15;97774.81;;;34.99;53.46
31346;BME280;21711;49.708;18.568;2023-06-22T07:27:58;97787.88;;;36.88;47.22
31346;BME280;21711;49.708;18.568;2023-06-22T07:30:26;97780.13;;;36.40;46.59
31346;BME280;21711;49.708;18.568;2023-06-22T07:32:54;97788.78;;;36.84;47.33
31346;BME280;21711;49.708;18.568;2023-06-22T07:35:22;97785.84;;;38.05;43.76
31346;BME280;21711;49.708;18.568;2023-06-22T07:37:49;97778.97;;;37.09;45.24
31346;BME280;21711;49.708;18.568;2023-06-22T07:40:17;97773.69;;;35.17;50.50
31346;BME280;21711;49.708;18.568;2023-06-22T07:42:44;97768.84;;;34.23;53.56
31346;BME280;21711;49.708;18.568;2023-06-22T07:45:12;97766.59;;;34.99;49.53
31346;BME280;21711;49.708;18.568;2023-06-22T07:47:39;97779.41;;;36.82;46.00
31346;BME280;21711;49.708;18.568;2023-06-22T07:50:07;97776.72;;;37.82;42.67
31346;BME280;21711;49.708;18.568;2023-06-22T07:52:34;97786.16;;;39.69;40.84
31346;BME280;21711;49.708;18.568;2023-06-22T07:55:02;97782.38;;;39.03;41.51
31346;BME280;21711;49.708;18.568;2023-06-22T07:57:30;97788.34;;;40.31;39.94
31346;BME280;21711;49.708;18.568;2023-06-22T08:00:04;97788.59;;;39.86;41.31
31346;BME280;21711;49.708;18.568;2023-06-22T08:02:44;97795.00;;;40.95;38.68
31346;BME280;21711;49.708;18.568;2023-06-22T08:05:14;97787.56;;;40.30;36.54
31346;BME280;21711;49.708;18.568;2023-06-22T08:08:01;97792.31;;;37.11;44.25
31346;BME280;21711;49.708;18.568;2023-06-22T08:10:28;97791.31;;;37.57;43.85
31346;BME280;21711;49.708;18.568;2023-06-22T08:12:56;97788.13;;;38.42;42.06
31346;BME280;21711;49.708;18.568;2023-06-22T08:15:23;97798.34;;;38.54;41.81
31346;BME280;21711;49.708;18.568;2023-06-22T08:17:50;97804.28;;;39.80;41.23
31346;BME280;21711;49.708;18.568;2023-06-22T08:20:19;97811.56;;;39.45;40.23
31346;BME280;21711;49.708;18.568;2023-06-22T08:22:47;97809.47;;;39.50;40.87
31346;BME280;21711;49.708;18.568;2023-06-22T08:25:14;97807.25;;;39.95;39.02
31346;BME280;21711;49.708;18.568;2023-06-22T08:27:45;97799.94;;;38.20;42.54
31346;BME280;21711;49.708;18.568;2023-06-22T08:30:15;97796.81;;;37.83;42.66
31346;BME280;21711;49.708;18.568;2023-06-22T08:32:43;97796.03;;;38.53;41.76
31346;BME280;21711;49.708;18.568;2023-06-22T08:35:10;97795.06;;;39.32;39.61
31346;BME280;21711;49.708;18.568;2023-06-22T08:37:38;97809.81;;;40.83;36.89
31346;BME280;21711;49.708;18.568;2023-06-22T08:40:09;97808.03;;;41.13;36.76
31346;BME280;21711;49.708;18.568;2023-06-22T08:42:40;97804.72;;;41.92;36.90
31346;BME280;21711;49.708;18.568;2023-06-22T08:45:09;97804.97;;;40.31;38.75
31346;BME280;21711;49.708;18.568;2023-06-22T08:47:37;97802.19;;;38.79;41.96
31346;BME280;21711;49.708;18.568;2023-06-22T08:50:06;97794.78;;;36.37;48.31
31346;BME280;21711;49.708;18.568;2023-06-22T08:52:36;97795.78;;;36.43;46.69
31346;BME280;21711;49.708;18.568;2023-06-22T08:55:05;97796.88;;;38.40;43.75
31346;BME280;21711;49.708;18.568;2023-06-22T08:57:33;97794.06;;;37.83;43.32
31346;BME280;21711;49.708;18.568;2023-06-22T09:00:00;97792.06;;;36.50;47.31
31346;BME280;21711;49.708;18.568;2023-06-22T09:02:28;97793.97;;;35.23;51.73
31346;BME280;21711;49.708;18.568;2023-06-22T09:04:58;97784.22;;;34.61;52.69
31346;BME280;21711;49.708;18.568;2023-06-22T09:07:26;97788.34;;;36.86;45.83
31346;BME280;21711;49.708;18.568;2023-06-22T09:09:54;97798.13;;;38.62;42.07
31346;BME280;21711;49.708;18.568;2023-06-22T09:12:21;97794.75;;;39.71;39.40
31346;BME280;21711;49.708;18.568;2023-06-22T09:14:53;97783.72;;;40.00;39.54
31346;BME280;21711;49.708;18.568;2023-06-22T09:17:22;97782.50;;;40.01;35.88
31346;BME280;21711;49.708;18.568;2023-06-22T09:19:50;97787.63;;;38.34;39.57
31346;BME280;21711;49.708;18.568;2023-06-22T09:22:17;97784.28;;;39.57;37.80
31346;BME280;21711;49.708;18.568;2023-06-22T09:24:45;97782.91;;;39.90;38.85
31346;BME280;21711;49.708;18.568;2023-06-22T09:27:12;97781.25;;;39.32;36.24
31346;BME280;21711;49.708;18.568;2023-06-22T09:29:39;97779.41;;;40.36;35.28
31346;BME280;21711;49.708;18.568;2023-06-22T09:32:07;97785.06;;;40.70;35.51
31346;BME280;21711;49.708;18.568;2023-06-22T09:34:34;97786.13;;;40.72;36.07
31346;BME280;21711;49.708;18.568;2023-06-22T09:37:02;97780.81;;;40.22;35.07
31346;BME280;21711;49.708;18.568;2023-06-22T09:39:29;97762.63;;;39.65;36.38
31346;BME280;21711;49.708;18.568;2023-06-22T09:41:59;97757.72;;;39.78;34.10
31346;BME280;21711;49.708;18.568;2023-06-22T09:44:29;97759.59;;;40.00;37.60
31346;BME280;21711;49.708;18.568;2023-06-22T09:46:57;97757.53;;;39.63;37.59
31346;BME280;21711;49.708;18.568;2023-06-22T09:49:24;97756.34;;;38.91;38.00
31346;BME280;21711;49.708;18.568;2023-06-22T09:52:11;97755.44;;;39.95;35.76
31346;BME280;21711;49.708;18.568;2023-06-22T09:54:39;97758.66;;;40.03;37.18
31346;BME280;21711;49.708;18.568;2023-06-22T09:57:07;97761.03;;;40.76;37.77
31346;BME280;21711;49.708;18.568;2023-06-22T09:59:34;97758.00;;;40.55;36.63
31346;BME280;21711;49.708;18.568;2023-06-22T10:02:01;97763.84;;;39.73;34.42
31346;BME280;21711;49.708;18.568;2023-06-22T10:04:29;97756.19;;;39.87;36.29
31346;BME280;21711;49.708;18.568;2023-06-22T10:06:57;97756.91;;;39.09;36.98
31346;BME280;21711;49.708;18.568;2023-06-22T10:09:24;97754.94;;;38.55;37.06
31346;BME280;21711;49.708;18.568;2023-06-22T10:11:51;97754.06;;;39.22;38.27
31346;BME280;21711;49.708;18.568;2023-06-22T10:14:19;97750.72;;;37.83;41.65
31346;BME280;21711;49.708;18.568;2023-06-22T10:16:48;97749.91;;;36.95;41.94
31346;BME280;21711;49.708;18.568;2023-06-22T10:19:16;97750.72;;;36.07;44.45
31346;BME280;21711;49.708;18.568;2023-06-22T10:21:43;97742.16;;;36.90;41.99
31346;BME280;21711;49.708;18.568;2023-06-22T10:24:10;97735.19;;;36.59;40.53
31346;BME280;21711;49.708;18.568;2023-06-22T10:26:37;97748.56;;;36.87;40.23
31346;BME280;21711;49.708;18.568;2023-06-22T10:29:05;97740.34;;;37.74;40.48
31346;BME280;21711;49.708;18.568;2023-06-22T10:31:43;97740.69;;;38.34;39.69
31346;BME280;21711;49.708;18.568;2023-06-22T10:34:11;97739.22;;;37.85;42.25
31346;BME280;21711;49.708;18.568;2023-06-22T10:36:39;97745.81;;;36.74;42.38
31346;BME280;21711;49.708;18.568;2023-06-22T10:39:06;97737.53;;;35.85;45.00
31346;BME280;21711;49.708;18.568;2023-06-22T10:41:34;97745.56;;;35.63;46.23
31346;BME280;21711;49.708;18.568;2023-06-22T10:44:02;97736.41;;;35.83;43.24
31346;BME280;21711;49.708;18.568;2023-06-22T10:46:29;97743.03;;;36.74;44.83
31346;BME280;21711;49.708;18.568;2023-06-22T10:48:57;97727.41;;;36.41;42.97
31346;BME280;21711;49.708;18.568;2023-06-22T10:51:25;97727.16;;;36.23;46.84
31346;BME280;21711;49.708;18.568;2023-06-22T10:53:53;97721.91;;;35.15;47.68
31346;BME280;21711;49.708;18.568;2023-06-22T10:56:20;97710.38;;;34.47;52.11
31346;BME280;21711;49.708;18.568;2023-06-22T10:58:48;97713.22;;;33.99;51.85
31346;BME280;21711;49.708;18.568;2023-06-22T11:01:15;97715.41;;;34.89;49.39
31346;BME280;21711;49.708;18.568;2023-06-22T11:04:00;97715.31;;;35.46;48.57
31346;BME280;21711;49.708;18.568;2023-06-22T11:06:28;97716.06;;;36.10;48.10
31346;BME280;21711;49.708;18.568;2023-06-22T11:08:56;97713.41;;;35.60;45.79
31346;BME280;21711;49.708;18.568;2023-06-22T11:11:32;97713.91;;;35.21;49.87
31346;BME280;21711;49.708;18.568;2023-06-22T11:14:00;97698.94;;;35.06;47.10
31346;BME280;21711;49.708;18.568;2023-06-22T11:16:27;97702.75;;;35.12;49.78
31346;BME280;21711;49.708;18.568;2023-06-22T11:18:55;97700.91;;;34.88;49.10
31346;BME280;21711;49.708;18.568;2023-06-22T11:21:22;97706.97;;;35.33;50.45
31346;BME280;21711;49.708;18.568;2023-06-22T11:23:50;97699.94;;;35.15;51.59
31346;BME280;21711;49.708;18.568;2023-06-22T11:26:17;97694.94;;;33.92;53.38
31346;BME280;21711;49.708;18.568;2023-06-22T11:28:45;97704.97;;;33.79;55.07
31346;BME280;21711;49.708;18.568;2023-06-22T11:31:12;97697.19;;;33.77;52.75
31346;BME280;21711;49.708;18.568;2023-06-22T11:33:52;97704.56;;;34.24;54.13
31346;BME280;21711;49.708;18.568;2023-06-22T11:36:20;97698.06;;;34.55;52.77
31346;BME280;21711;49.708;18.568;2023-06-22T11:38:48;97697.84;;;34.46;51.77
31346;BME280;21711;49.708;18.568;2023-06-22T11:41:15;97691.22;;;33.58;51.07
31346;BME280;21711;49.708;18.568;2023-06-22T11:43:43;97680.00;;;33.73;54.00
31346;BME280;21711;49.708;18.568;2023-06-22T11:46:10;97688.41;;;34.47;51.08
31346;BME280;21711;49.708;18.568;2023-06-22T11:48:38;97682.00;;;34.91;53.46
31346;BME280;21711;49.708;18.568;2023-06-22T11:51:05;97683.03;;;34.80;49.79
31346;BME280;21711;49.708;18.568;2023-06-22T11:53:34;97670.75;;;33.87;51.85
31346;BME280;21711;49.708;18.568;2023-06-22T11:56:01;97663.63;;;33.90;57.48
31346;BME280;21711;49.708;18.568;2023-06-22T11:58:29;97669.72;;;34.01;51.01
31346;BME280;21711;49.708;18.568;2023-06-22T12:00:56;97666.47;;;33.86;54.45
31346;BME280;21711;49.708;18.568;2023-06-22T12:03:24;97665.03;;;34.22;52.76
31346;BME280;21711;49.708;18.568;2023-06-22T12:05:52;97661.31;;;33.68;56.83
31346;BME280;21711;49.708;18.568;2023-06-22T12:08:19;97662.06;;;33.44;54.65
31346;BME280;21711;49.708;18.568;2023-06-22T12:10:48;97656.63;;;32.62;57.88
31346;BME280;21711;49.708;18.568;2023-06-22T12:13:17;97656.69;;;32.86;55.17
31346;BME280;21711;49.708;18.568;2023-06-22T12:15:44;97648.47;;;32.58;57.70
31346;BME280;21711;49.708;18.568;2023-06-22T12:18:12;97640.41;;;32.12;64.88
31346;BME280;21711;49.708;18.568;2023-06-22T12:20:41;97642.72;;;32.18;62.62
31346;BME280;21711;49.708;18.568;2023-06-22T12:23:08;97634.63;;;32.38;61.15
31346;BME280;21711;49.708;18.568;2023-06-22T12:25:36;97632.00;;;32.31;59.17
31346;BME280;21711;49.708;18.568;2023-06-22T12:28:04;97630.06;;;32.27;59.12
31346;BME280;21711;49.708;18.568;2023-06-22T12:30:33;97631.75;;;32.80;61.71
31346;BME280;21711;49.708;18.568;2023-06-22T12:33:00;97630.31;;;33.23;57.19
31346;BME280;21711;49.708;18.568;2023-06-22T12:35:28;97628.28;;;33.51;54.90
31346;BME280;21711;49.708;18.568;2023-06-22T12:37:55;97626.50;;;33.65;56.73
31346;BME280;21711;49.708;18.568;2023-06-22T12:40:23;97631.94;;;33.21;56.79
31346;BME280;21711;49.708;18.568;2023-06-22T12:42:50;97628.91;;;32.60;54.87
31346;BME280;21711;49.708;18.568;2023-06-22T12:45:18;97627.66;;;32.64;58.87
31346;BME280;21711;49.708;18.568;2023-06-22T12:47:47;97625.84;;;32.82;56.25
31346;BME280;21711;49.708;18.568;2023-06-22T12:50:17;97618.41;;;32.82;61.37
31346;BME280;21711;49.708;18.568;2023-06-22T12:52:44;97619.13;;;33.38;59.65
31346;BME280;21711;49.708;18.568;2023-06-22T12:55:12;97613.84;;;33.27;60.70